March AFB, California
Current Conditions -  °F | °C
As of 7:58 PM on Sunday 23 Nov 2014 (Local Time) from KRIV Reporting Station
Clear Clear  
Wind Chill: 53°   Ceiling: Unl
Heat Index: 53°   Visibility: 10mi
Dew Point:   Wind: 0mph
Humidity: 17%   Direction: NA
Pressure: 30.18"   Gusts: NA
Location:  33.89°N, 117.26°W
Report Text: KRIV 240358Z AUTO 00000KT 10SM CLR 11/M13 A3018 RMK AO2 SLP218 T01141132
Loading
Personal Weather Stations






























Interactive Weather Map New forecast layout! Learn more

10-Day Weather Forecast

Advertisements
Track Severe Weather on mobile